Andalusia, AL

12:14 AM CST on February 14, 2016 (GMT -0600)
Chigger Hill off Moore Rd | | Change Station
CLOSE
Current Station
Personal Weather Station
Location: Andalusia, AL
Elevation: 280 ft
Nearby Weather Stations

Elev 280 ft 31.25 °N, 86.50 °W | Updated 6 seconds ago

Clear
Clear
35.2 °F
Feels Like 35 °F
N
0.0
Wind Variable Wind from North
Gusts 0.0 mph

Today
High -- | Low -- °F
--% Chance of Precip.
Yesterday
High -- | Low -- °F
Precip. -- in
Pressure 30.35 in
Visibility 10.0 miles
Clouds Clear
Windchill 35 °F
Dew Point 23 °F
Humidity 60%
Rainfall 0.00 in
Snow Depth Not available.
6:29 AM 5:32 PM
Waxing Crescent, 38% visible
METAR K79J 140556Z AUTO 00000KT 10SM CLR 04/M08 A3036 RMK AO2 SLP278 T00391083 10106 20039 56005
Pressure 30.35 in
Visibility 10.0 miles
Clouds Clear
Windchill 35 °F
Dew Point 23 °F
Humidity 60%
Rainfall 0.00 in
Snow Depth Not available.
6:29 AM 5:32 PM
Waxing Crescent, 38% visible
METAR K79J 140556Z AUTO 00000KT 10SM CLR 04/M08 A3036 RMK AO2 SLP278 T00391083 10106 20039 56005

10-Day Weather Forecast

Almanac

Astronomy

Feb. 14, 2016 Rise Set
Actual Time
Civil Twilight
Nautical Twilight
Astronomical Twilight
Moon
Length of Visible Light
Length of Day
Tomorrow will be .
, % of the Moon is Illuminated

Today's Extremes

State Highs State Lows

Community

WunderPhotos

Upload Photos

1,892,753 photos uploaded!

WunderBlog® & News

Nearby

Air Quality

  Air Quality AQ Index Pollutant
Not available.

Snow Depth

Station Depth Elevation

Earthquake Activity

City Distance Mag. Time & Date
Minimum magnitude displayed is 2.5.

Coastal Water Temperatures

Place Temperature

Stations

Nearby Weather Stations

Station Location Temp. Windchill Dew Point Humidity Wind Precip. Elev Updated Type
                   

Watches & Warnings

There are currently no watches in effect.